createdAt,value
2023-04-14T00:00:51.224Z,6.19
2023-04-14T00:01:51.274Z,6.28
2023-04-14T00:02:51.312Z,6.26
2023-04-14T00:03:51.452Z,6.20
2023-04-14T00:04:51.347Z,6.29
2023-04-14T00:05:51.282Z,6.31
2023-04-14T00:06:51.292Z,6.31
2023-04-14T00:07:51.307Z,6.28
2023-04-14T00:08:51.310Z,6.28
2023-04-14T00:09:51.329Z,6.28
2023-04-14T00:10:51.344Z,6.32
2023-04-14T00:11:51.353Z,6.35
2023-04-14T00:12:51.368Z,6.43
2023-04-14T00:13:51.377Z,6.43
2023-04-14T00:14:51.389Z,6.50
2023-04-14T00:15:51.401Z,6.47
2023-04-14T00:16:51.501Z,6.44
2023-04-14T00:17:51.455Z,6.47
2023-04-14T00:18:51.448Z,6.49
2023-04-14T00:19:51.457Z,6.44
2023-04-14T00:20:51.466Z,6.56
2023-04-14T00:21:51.474Z,6.52
2023-04-14T00:22:51.488Z,6.49
2023-04-14T00:23:51.499Z,6.53
2023-04-14T00:24:51.528Z,6.59
2023-04-14T00:25:51.529Z,6.57
2023-04-14T00:26:51.544Z,6.62
2023-04-14T00:27:51.556Z,6.54
2023-04-14T00:28:51.561Z,6.57
2023-04-14T00:29:51.572Z,6.67
2023-04-14T00:30:51.682Z,6.67
2023-04-14T00:31:51.597Z,6.70
2023-04-14T00:32:51.648Z,6.78
2023-04-14T00:33:51.626Z,6.75
2023-04-14T00:34:51.636Z,6.70
2023-04-14T00:35:51.646Z,6.77
2023-04-14T00:36:51.658Z,6.72
2023-04-14T00:37:51.670Z,6.82
2023-04-14T00:38:51.687Z,6.78
2023-04-14T00:39:51.694Z,6.72
2023-04-14T00:40:51.720Z,6.77
2023-04-14T00:41:51.726Z,6.78
2023-04-14T00:42:51.736Z,6.82
2023-04-14T00:43:51.750Z,6.82
2023-04-14T00:44:51.760Z,6.77
2023-04-14T00:45:51.817Z,6.86
2023-04-14T00:46:51.790Z,6.86
2023-04-14T00:47:51.829Z,6.90
2023-04-14T00:48:51.807Z,6.89
2023-04-14T00:49:51.821Z,6.89
2023-04-14T00:50:51.834Z,6.83
2023-04-14T00:51:51.853Z,6.83
2023-04-14T00:52:51.860Z,6.95
2023-04-14T00:53:51.870Z,6.96
2023-04-14T00:54:51.887Z,6.92
2023-04-14T00:55:51.897Z,6.96
2023-04-14T00:56:51.912Z,6.95
2023-04-14T00:57:51.920Z,6.92
2023-04-14T00:58:51.949Z,6.97
2023-04-14T00:59:51.949Z,6.95
2023-04-14T01:00:51.960Z,6.90
2023-04-14T01:01:52.124Z,6.93
2023-04-14T01:02:52.145Z,7.01
2023-04-14T01:03:52.185Z,6.92
2023-04-14T01:04:54.620Z,6.93
2023-04-14T01:05:52.030Z,6.97
2023-04-14T01:06:52.037Z,7.03
2023-04-14T01:07:52.048Z,7.08
2023-04-14T01:08:52.063Z,7.01
2023-04-14T01:09:52.081Z,7.08
2023-04-14T01:10:52.086Z,7.01
2023-04-14T01:11:52.099Z,7.10
2023-04-14T01:12:52.114Z,7.07
2023-04-14T01:13:52.137Z,7.10
2023-04-14T01:14:52.143Z,7.08
2023-04-14T01:15:52.202Z,7.10
2023-04-14T01:16:52.164Z,7.11
2023-04-14T01:17:52.203Z,7.11
2023-04-14T01:18:52.189Z,7.08
2023-04-14T01:19:52.201Z,7.07
2023-04-14T01:20:52.211Z,7.10
2023-04-14T01:21:52.229Z,7.11
2023-04-14T01:22:52.244Z,7.19
2023-04-14T01:23:52.252Z,7.22
2023-04-14T01:24:52.265Z,7.08
2023-04-14T01:25:52.277Z,7.13
2023-04-14T01:26:52.290Z,7.21
2023-04-14T01:27:52.320Z,7.22
2023-04-14T01:28:52.316Z,7.18
2023-04-14T01:29:52.326Z,7.21
2023-04-14T01:30:52.353Z,7.21
2023-04-14T01:31:52.517Z,7.13
2023-04-14T01:32:52.393Z,7.23
2023-04-14T01:33:52.380Z,7.15
2023-04-14T01:34:52.390Z,7.22
2023-04-14T01:35:52.408Z,7.19
2023-04-14T01:36:52.416Z,7.11
2023-04-14T01:37:52.461Z,7.19
2023-04-14T01:38:52.444Z,7.25
2023-04-14T01:39:52.460Z,7.26
2023-04-14T01:40:52.487Z,7.28
2023-04-14T01:41:52.493Z,7.22
2023-04-14T01:42:52.502Z,7.28
2023-04-14T01:43:52.512Z,7.26
2023-04-14T01:44:52.522Z,7.23
2023-04-14T01:45:52.576Z,7.23
2023-04-14T01:46:52.554Z,7.26
2023-04-14T01:47:52.601Z,7.25
2023-04-14T01:48:52.592Z,7.31
2023-04-14T01:49:52.581Z,7.29
2023-04-14T01:50:52.598Z,7.31
2023-04-14T01:51:52.620Z,7.23
2023-04-14T01:52:52.626Z,7.28
2023-04-14T01:53:52.635Z,7.26
2023-04-14T01:54:52.654Z,7.28
2023-04-14T01:55:52.671Z,7.37
2023-04-14T01:56:52.726Z,7.28
2023-04-14T01:57:52.701Z,7.39
2023-04-14T01:58:52.704Z,7.37
2023-04-14T01:59:52.712Z,7.39
2023-04-14T02:00:52.824Z,7.37
2023-04-14T02:01:52.781Z,7.39
2023-04-14T02:02:52.826Z,7.36
2023-04-14T02:03:52.968Z,7.40
2023-04-14T02:04:52.781Z,7.44
2023-04-14T02:05:52.790Z,7.43
2023-04-14T02:06:52.808Z,7.46
2023-04-14T02:07:52.813Z,7.43
2023-04-14T02:08:52.830Z,7.39
2023-04-14T02:09:52.842Z,7.37
2023-04-14T02:10:52.853Z,7.47
2023-04-14T02:11:52.881Z,7.50
2023-04-14T02:12:52.892Z,7.50
2023-04-14T02:13:52.898Z,7.55
2023-04-14T02:14:52.916Z,7.51
2023-04-14T02:15:52.942Z,7.51
2023-04-14T02:16:52.999Z,7.50
2023-04-14T02:17:53.062Z,7.51
2023-04-14T02:18:52.958Z,7.50
2023-04-14T02:19:52.969Z,7.55
2023-04-14T02:20:53.007Z,7.48
2023-04-14T02:21:52.994Z,7.56
2023-04-14T02:22:53.008Z,7.56
2023-04-14T02:23:53.017Z,7.55
2023-04-14T02:24:53.031Z,7.55
2023-04-14T02:25:53.055Z,7.64
2023-04-14T02:26:53.057Z,7.61
2023-04-14T02:27:53.085Z,7.64
2023-04-14T02:28:53.094Z,7.62
2023-04-14T02:29:53.098Z,7.64
2023-04-14T02:30:53.133Z,7.59
2023-04-14T02:31:53.122Z,7.61
2023-04-14T02:32:53.228Z,7.67
2023-04-14T02:33:53.150Z,7.69
2023-04-14T02:34:53.161Z,7.61
2023-04-14T02:35:53.178Z,7.69
2023-04-14T02:36:53.191Z,7.69
2023-04-14T02:37:53.199Z,7.67
2023-04-14T02:38:53.215Z,7.70
2023-04-14T02:39:53.227Z,7.67
2023-04-14T02:40:53.239Z,7.67
2023-04-14T02:41:53.253Z,7.77
2023-04-14T02:42:53.272Z,7.74
2023-04-14T02:43:53.284Z,7.74
2023-04-14T02:44:53.299Z,7.72
2023-04-14T02:45:53.342Z,7.69
2023-04-14T02:46:53.330Z,7.80
2023-04-14T02:47:53.374Z,7.70
2023-04-14T02:48:53.379Z,7.75
2023-04-14T02:49:53.366Z,7.80
2023-04-14T02:50:53.376Z,7.81
2023-04-14T02:51:53.392Z,7.78
2023-04-14T02:52:53.401Z,7.80
2023-04-14T02:53:53.415Z,7.77
2023-04-14T02:54:53.435Z,7.83
2023-04-14T02:55:53.441Z,7.80
2023-04-14T02:56:53.452Z,7.80
2023-04-14T02:57:53.468Z,7.80
2023-04-14T02:58:53.485Z,7.81
2023-04-14T02:59:53.496Z,7.83
2023-04-14T03:00:53.508Z,7.88
2023-04-14T03:01:53.567Z,7.93
2023-04-14T03:02:53.597Z,7.85
2023-04-14T03:03:53.616Z,7.85
2023-04-14T03:04:53.576Z,7.85
2023-04-14T03:05:53.574Z,7.88
2023-04-14T03:06:53.588Z,7.93
2023-04-14T03:07:53.602Z,7.88
2023-04-14T03:08:53.620Z,7.83
2023-04-14T03:09:53.634Z,7.85
2023-04-14T03:10:53.640Z,7.85
2023-04-14T03:11:53.654Z,7.84
2023-04-14T03:12:53.676Z,7.91
2023-04-14T03:13:53.698Z,7.85
2023-04-14T03:14:53.695Z,7.95
2023-04-14T03:15:53.736Z,7.91
2023-04-14T03:16:53.783Z,7.95
2023-04-14T03:17:53.775Z,7.95
2023-04-14T03:18:53.753Z,7.91
2023-04-14T03:19:53.776Z,7.88
2023-04-14T03:20:53.773Z,7.88
2023-04-14T03:21:53.794Z,7.96
2023-04-14T03:22:53.799Z,7.93
2023-04-14T03:23:53.814Z,7.95
2023-04-14T03:24:53.842Z,7.95
2023-04-14T03:25:53.835Z,7.95
2023-04-14T03:26:53.851Z,7.90
2023-04-14T03:27:53.865Z,7.90
2023-04-14T03:28:53.878Z,7.90
2023-04-14T03:29:53.899Z,7.96
2023-04-14T03:30:53.965Z,7.88
2023-04-14T03:31:53.921Z,7.99
2023-04-14T03:32:53.974Z,7.90
2023-04-14T03:33:53.944Z,7.93
2023-04-14T03:34:53.955Z,7.91
2023-04-14T03:35:53.974Z,7.95
2023-04-14T03:36:53.983Z,7.96
2023-04-14T03:37:53.997Z,7.98
2023-04-14T03:38:54.010Z,7.90
2023-04-14T03:39:54.027Z,7.95
2023-04-14T03:40:54.037Z,7.95
2023-04-14T03:41:54.046Z,8.01
2023-04-14T03:42:54.063Z,7.91
2023-04-14T03:43:54.086Z,7.93
2023-04-14T03:44:54.121Z,8.01
2023-04-14T03:45:54.111Z,7.93
2023-04-14T03:46:54.160Z,7.98
2023-04-14T03:47:54.162Z,7.93
2023-04-14T03:48:54.138Z,7.95
2023-04-14T03:49:54.154Z,7.96
2023-04-14T03:50:54.167Z,8.01
2023-04-14T03:51:54.181Z,7.87
2023-04-14T03:52:54.199Z,7.90
2023-04-14T03:53:54.478Z,7.75
2023-04-14T03:54:54.248Z,7.75
2023-04-14T03:55:54.230Z,7.84
2023-04-14T03:56:54.245Z,7.87
2023-04-14T03:57:54.259Z,7.84
2023-04-14T03:58:54.280Z,7.87
2023-04-14T03:59:54.287Z,7.90
2023-04-14T04:00:54.301Z,7.90
2023-04-14T04:01:54.364Z,7.91
2023-04-14T04:02:54.475Z,7.93
2023-04-14T04:03:54.394Z,7.87
2023-04-14T04:04:54.434Z,7.88
2023-04-14T04:05:54.390Z,7.85
2023-04-14T04:06:54.396Z,7.87
2023-04-14T04:07:54.396Z,7.87
2023-04-14T04:08:54.408Z,7.85
2023-04-14T04:09:54.417Z,7.87
2023-04-14T04:10:54.437Z,7.87
2023-04-14T04:11:54.447Z,7.88
2023-04-14T04:12:54.454Z,7.98
2023-04-14T04:13:54.468Z,7.77
2023-04-14T04:14:54.484Z,7.93
2023-04-14T04:15:54.495Z,7.87
2023-04-14T04:16:54.570Z,7.87
2023-04-14T04:17:54.572Z,7.98
2023-04-14T04:18:54.533Z,7.90
2023-04-14T04:19:54.552Z,7.87
2023-04-14T04:20:54.562Z,7.81
2023-04-14T04:21:54.572Z,7.83
2023-04-14T04:22:54.593Z,7.87
2023-04-14T04:23:54.619Z,7.90
2023-04-14T04:24:54.610Z,7.93
2023-04-14T04:25:54.627Z,7.98
2023-04-14T04:26:54.635Z,7.91
2023-04-14T04:27:54.648Z,7.95
2023-04-14T04:28:54.709Z,7.91
2023-04-14T04:29:54.677Z,7.95
2023-04-14T04:30:54.685Z,7.93
2023-04-14T04:31:55.353Z,7.98
2023-04-14T04:32:54.732Z,7.81
2023-04-14T04:33:54.726Z,7.90
2023-04-14T04:34:54.744Z,7.87
2023-04-14T04:35:54.758Z,7.87
2023-04-14T04:36:54.767Z,7.81
2023-04-14T04:37:54.785Z,7.90
2023-04-14T04:38:54.788Z,7.90
2023-04-14T04:39:54.804Z,7.85
2023-04-14T04:40:54.827Z,7.91
2023-04-14T04:41:54.833Z,7.99
2023-04-14T04:42:54.852Z,7.91
2023-04-14T04:43:54.868Z,7.95
2023-04-14T04:44:54.869Z,7.91
2023-04-14T04:45:54.948Z,7.96
2023-04-14T04:46:54.962Z,7.91
2023-04-14T04:47:54.937Z,7.90
2023-04-14T04:48:54.924Z,7.90
2023-04-14T04:49:54.935Z,7.90
2023-04-14T04:50:54.946Z,7.95
2023-04-14T04:51:54.960Z,8.01
2023-04-14T04:52:54.999Z,7.95
2023-04-14T04:53:54.986Z,7.95
2023-04-14T04:54:55.010Z,7.93
2023-04-14T04:55:55.016Z,7.88
2023-04-14T04:56:55.024Z,8.03
2023-04-14T04:57:55.037Z,7.98
2023-04-14T04:58:55.050Z,7.98
2023-04-14T04:59:55.062Z,7.96
2023-04-14T05:00:55.113Z,7.99
2023-04-14T05:01:55.200Z,7.96
2023-04-14T05:02:55.208Z,7.98
2023-04-14T05:03:55.154Z,7.95
2023-04-14T05:04:55.171Z,7.96
2023-04-14T05:05:55.143Z,7.99
2023-04-14T05:06:55.157Z,8.01
2023-04-14T05:07:55.170Z,8.01
2023-04-14T05:08:55.185Z,8.01
2023-04-14T05:09:55.195Z,8.05
2023-04-14T05:10:55.215Z,8.13
2023-04-14T05:11:55.227Z,8.09
2023-04-14T05:12:55.237Z,8.17
2023-04-14T05:13:55.253Z,8.09
2023-04-14T05:14:55.265Z,8.08
2023-04-14T05:15:55.340Z,8.13
2023-04-14T05:16:55.298Z,8.11
2023-04-14T05:17:55.340Z,8.09
2023-04-14T05:18:55.319Z,8.09
2023-04-14T05:19:55.334Z,8.17
2023-04-14T05:20:55.356Z,8.11
2023-04-14T05:21:55.357Z,8.11
2023-04-14T05:22:55.373Z,8.17
2023-04-14T05:23:55.387Z,8.17
2023-04-14T05:24:55.401Z,8.16
2023-04-14T05:25:55.413Z,8.23
2023-04-14T05:27:12.251Z,8.26
2023-04-14T05:27:55.455Z,8.23
2023-04-14T05:28:55.452Z,8.24
2023-04-14T05:29:55.475Z,8.24
2023-04-14T05:30:55.528Z,8.27
2023-04-14T05:31:55.494Z,8.27
2023-04-14T05:32:55.557Z,8.27
2023-04-14T05:33:55.521Z,8.31
2023-04-14T05:34:55.545Z,8.28
2023-04-14T05:35:55.556Z,8.27
2023-04-14T05:36:55.566Z,8.27
2023-04-14T05:37:55.577Z,8.23
2023-04-14T05:38:55.594Z,8.38
2023-04-14T05:39:55.611Z,8.26
2023-04-14T05:40:55.624Z,8.34
2023-04-14T05:41:55.640Z,8.41
2023-04-14T05:42:57.007Z,8.45
2023-04-14T05:43:55.678Z,8.34
2023-04-14T05:44:55.672Z,8.41
2023-04-14T05:45:55.686Z,8.53
2023-04-14T05:46:55.902Z,8.44
2023-04-14T05:47:55.753Z,8.45
2023-04-14T05:48:55.724Z,8.45
2023-04-14T05:49:55.741Z,8.45
2023-04-14T05:50:55.759Z,8.45
2023-04-14T05:51:55.768Z,8.46
2023-04-14T05:52:55.782Z,8.46
2023-04-14T05:53:55.795Z,8.42
2023-04-14T05:54:55.809Z,8.52
2023-04-14T05:55:55.825Z,8.44
2023-04-14T05:56:55.836Z,8.57
2023-04-14T05:57:55.854Z,8.42
2023-04-14T05:58:55.932Z,8.45
2023-04-14T05:59:57.686Z,8.49
2023-04-14T06:00:55.894Z,8.49
2023-04-14T06:01:55.969Z,8.53
2023-04-14T06:02:56.145Z,8.45
2023-04-14T06:03:56.196Z,8.57
2023-04-14T06:04:56.037Z,8.44
2023-04-14T06:05:55.965Z,8.52
2023-04-14T06:06:55.976Z,8.54
2023-04-14T06:07:55.988Z,8.49
2023-04-14T06:08:56.011Z,8.46
2023-04-14T06:09:56.017Z,8.63
2023-04-14T06:10:56.030Z,8.57
2023-04-14T06:11:56.044Z,8.57
2023-04-14T06:12:56.056Z,8.56
2023-04-14T06:13:56.077Z,8.59
2023-04-14T06:14:56.108Z,8.63
2023-04-14T06:15:56.132Z,8.59
2023-04-14T06:16:56.128Z,8.69
2023-04-14T06:17:56.212Z,8.66
2023-04-14T06:18:56.144Z,8.69
2023-04-14T06:19:56.157Z,8.72
2023-04-14T06:20:56.186Z,8.78
2023-04-14T06:21:56.189Z,8.77
2023-04-14T06:22:56.195Z,8.79
2023-04-14T06:23:56.213Z,8.74
2023-04-14T06:24:56.228Z,8.82
2023-04-14T06:25:56.242Z,8.87
2023-04-14T06:26:56.255Z,8.79
2023-04-14T06:27:56.265Z,8.82
2023-04-14T06:28:56.292Z,8.78
2023-04-14T06:29:56.303Z,8.81
2023-04-14T06:30:56.307Z,8.87
2023-04-14T06:31:56.384Z,8.90
2023-04-14T06:32:56.388Z,8.86
2023-04-14T06:33:56.364Z,8.90
2023-04-14T06:34:56.368Z,8.93
2023-04-14T06:35:56.380Z,8.90
2023-04-14T06:36:56.393Z,8.95
2023-04-14T06:37:56.409Z,8.82
2023-04-14T06:38:56.421Z,8.90
2023-04-14T06:39:56.436Z,8.86
2023-04-14T06:40:56.454Z,8.93
2023-04-14T06:41:56.464Z,8.97
2023-04-14T06:42:56.493Z,8.93
2023-04-14T06:43:56.495Z,8.95
2023-04-14T06:44:56.507Z,8.90
2023-04-14T06:45:56.538Z,8.93
2023-04-14T06:46:57.249Z,8.99
2023-04-14T06:47:56.567Z,9.00
2023-04-14T06:48:56.562Z,8.97
2023-04-14T06:49:56.578Z,9.02
2023-04-14T06:50:56.601Z,9.05
2023-04-14T06:51:56.610Z,9.09
2023-04-14T06:52:56.621Z,9.08
2023-04-14T06:53:56.634Z,9.03
2023-04-14T06:54:56.665Z,9.02
2023-04-14T06:55:56.664Z,9.16
2023-04-14T06:56:56.682Z,9.15
2023-04-14T06:57:56.699Z,9.12
2023-04-14T06:58:56.714Z,9.16
2023-04-14T06:59:56.725Z,9.12
2023-04-14T07:00:56.793Z,9.19
2023-04-14T07:01:56.918Z,9.16
2023-04-14T07:02:56.935Z,9.18
2023-04-14T07:03:56.779Z,9.19
2023-04-14T07:04:56.841Z,9.27
2023-04-14T07:05:56.808Z,9.29
2023-04-14T07:06:56.822Z,9.27
2023-04-14T07:07:56.839Z,9.27
2023-04-14T07:08:56.849Z,9.34
2023-04-14T07:09:56.951Z,9.30
2023-04-14T07:10:56.882Z,9.36
2023-04-14T07:11:56.897Z,9.45
2023-04-14T07:12:56.908Z,9.44
2023-04-14T07:13:56.927Z,9.45
2023-04-14T07:14:56.944Z,9.52
2023-04-14T07:15:57.012Z,9.48
2023-04-14T07:16:56.968Z,9.45
2023-04-14T07:17:59.814Z,9.59
2023-04-14T07:18:57.000Z,9.63
2023-04-14T07:19:57.019Z,9.62
2023-04-14T07:20:57.027Z,9.62
2023-04-14T07:21:57.044Z,9.64
2023-04-14T07:22:57.060Z,9.56
2023-04-14T07:23:57.076Z,9.72
2023-04-14T07:24:57.089Z,9.64
2023-04-14T07:25:57.136Z,9.64
2023-04-14T07:26:57.133Z,9.76
2023-04-14T07:28:03.232Z,9.72
2023-04-14T07:28:57.153Z,9.67
2023-04-14T07:29:57.167Z,9.77
2023-04-14T07:30:57.218Z,9.72
2023-04-14T07:31:57.195Z,9.73
2023-04-14T07:32:57.244Z,9.66
2023-04-14T07:33:57.233Z,9.67
2023-04-14T07:34:58.827Z,9.72
2023-04-14T07:36:57.270Z,9.73
2023-04-14T07:37:57.285Z,9.76
2023-04-14T07:38:57.324Z,9.72
2023-04-14T07:39:57.357Z,9.74
2023-04-14T07:40:57.334Z,9.72
2023-04-14T07:41:57.351Z,9.77
2023-04-14T07:42:57.362Z,9.81
2023-04-14T07:43:57.376Z,9.85
2023-04-14T07:44:57.395Z,9.90
2023-04-14T07:45:57.433Z,9.84
2023-04-14T07:46:57.450Z,9.87
2023-04-14T07:47:57.870Z,9.81
2023-04-14T07:48:57.461Z,9.85
2023-04-14T07:49:57.474Z,9.95
2023-04-14T07:50:57.486Z,9.85
2023-04-14T07:51:57.502Z,9.88
2023-04-14T07:52:57.518Z,9.84
2023-04-14T07:53:57.532Z,9.84
2023-04-14T07:54:57.546Z,9.84
2023-04-14T07:55:57.564Z,9.85
2023-04-14T07:56:57.614Z,9.90
2023-04-14T07:57:57.594Z,9.88
2023-04-14T07:58:57.662Z,9.85
2023-04-14T07:59:57.624Z,9.81
2023-04-14T08:00:57.684Z,9.77
2023-04-14T08:01:57.799Z,9.69
2023-04-14T08:02:57.812Z,9.74
2023-04-14T08:03:57.840Z,9.73
2023-04-14T08:04:57.736Z,9.74
2023-04-14T08:05:57.717Z,9.74
2023-04-14T08:06:57.733Z,9.74
2023-04-14T08:07:57.751Z,9.70
2023-04-14T08:08:57.760Z,9.73
2023-04-14T08:09:57.782Z,9.72
2023-04-14T08:10:57.802Z,9.76
2023-04-14T08:11:57.811Z,9.69
2023-04-14T08:12:57.821Z,9.64
2023-04-14T08:13:57.837Z,9.55
2023-04-14T08:14:57.849Z,9.56
2023-04-14T08:15:57.892Z,9.51
2023-04-14T08:16:57.880Z,9.56
2023-04-14T08:17:57.925Z,9.47
2023-04-14T08:18:58.241Z,9.48
2023-04-14T08:19:57.937Z,9.47
2023-04-14T08:20:57.941Z,9.45
2023-04-14T08:21:57.994Z,9.48
2023-04-14T08:22:57.971Z,9.42
2023-04-14T08:23:57.989Z,9.48
2023-04-14T08:24:57.999Z,9.42
2023-04-14T08:25:58.026Z,9.47
2023-04-14T08:26:58.044Z,9.52
2023-04-14T08:27:58.054Z,9.45
2023-04-14T08:28:58.107Z,9.36
2023-04-14T08:29:58.072Z,9.34
2023-04-14T08:30:58.087Z,9.27
2023-04-14T08:31:58.127Z,9.33
2023-04-14T08:32:59.193Z,9.33
2023-04-14T08:33:58.134Z,9.36
2023-04-14T08:35:39.191Z,9.30
2023-04-14T08:36:00.473Z,9.26
2023-04-14T08:36:58.185Z,9.18
2023-04-14T08:37:58.203Z,9.16
2023-04-14T08:38:58.548Z,9.15
2023-04-14T08:39:58.218Z,9.19
2023-04-14T08:40:58.234Z,9.16
2023-04-14T08:41:58.250Z,9.15
2023-04-14T08:42:58.287Z,9.18
2023-04-14T08:43:58.281Z,9.15
2023-04-14T08:44:58.290Z,9.18
2023-04-14T08:45:58.346Z,9.13
2023-04-14T08:46:58.322Z,9.18
2023-04-14T08:47:58.391Z,9.13
2023-04-14T08:48:58.458Z,9.13
2023-04-14T08:49:58.366Z,9.09
2023-04-14T08:50:58.381Z,9.11
2023-04-14T08:51:58.411Z,9.15
2023-04-14T08:52:58.410Z,9.13
2023-04-14T08:53:58.424Z,9.11
2023-04-14T08:54:58.446Z,9.15
2023-04-14T08:55:58.708Z,9.15
2023-04-14T08:56:58.469Z,9.18
2023-04-14T08:57:58.484Z,9.16
2023-04-14T08:58:58.498Z,9.18
2023-04-14T08:59:58.510Z,9.16
2023-04-14T09:00:58.551Z,9.15
2023-04-14T09:01:58.742Z,9.16
2023-04-14T09:02:58.677Z,9.16
2023-04-14T09:03:58.791Z,9.12
2023-04-14T09:04:58.721Z,9.18
2023-04-14T09:05:58.597Z,9.16
2023-04-14T09:06:58.617Z,9.19
2023-04-14T09:07:58.629Z,9.09
2023-04-14T09:08:58.643Z,9.16
2023-04-14T09:09:58.658Z,9.09
2023-04-14T09:10:58.673Z,9.16
2023-04-14T09:11:58.690Z,9.16
2023-04-14T09:12:58.724Z,9.13
2023-04-14T09:13:58.735Z,9.08
2023-04-14T09:14:58.735Z,9.08
2023-04-14T09:15:58.746Z,9.00
2023-04-14T09:16:58.788Z,9.05
2023-04-14T09:17:58.806Z,9.05
2023-04-14T09:19:01.514Z,9.05
2023-04-14T09:20:37.434Z,9.03
2023-04-14T09:21:31.280Z,9.03
2023-04-14T09:21:58.960Z,9.02
2023-04-14T09:22:58.857Z,8.95
2023-04-14T09:23:59.006Z,9.02
2023-04-14T09:24:58.896Z,8.84
2023-04-14T09:25:58.884Z,8.92
2023-04-14T09:26:58.913Z,8.86
2023-04-14T09:27:58.916Z,8.87
2023-04-14T09:28:59.103Z,8.87
2023-04-14T09:29:58.948Z,8.90
2023-04-14T09:30:59.000Z,8.93
2023-04-14T09:31:59.084Z,8.95
2023-04-14T09:32:59.052Z,8.87
2023-04-14T09:33:59.069Z,8.93
2023-04-14T09:34:59.011Z,8.89
2023-04-14T09:35:59.028Z,8.86
2023-04-14T09:36:59.051Z,8.75
2023-04-14T09:37:59.053Z,8.84
2023-04-14T09:38:59.074Z,8.78
2023-04-14T09:39:59.084Z,8.74
2023-04-14T09:40:59.101Z,8.86
2023-04-14T09:41:59.109Z,8.78
2023-04-14T09:42:59.125Z,8.84
2023-04-14T09:43:59.403Z,8.87
2023-04-14T09:44:59.163Z,8.79
2023-04-14T09:45:59.218Z,8.87
2023-04-14T09:46:59.186Z,8.87
2023-04-14T09:47:59.214Z,8.78
2023-04-14T09:48:59.227Z,8.79
2023-04-14T09:49:59.220Z,8.82
2023-04-14T09:50:59.245Z,8.92
2023-04-14T09:51:59.250Z,8.82
2023-04-14T09:52:59.262Z,8.87
2023-04-14T09:53:59.293Z,8.90
2023-04-14T09:54:59.289Z,8.84
2023-04-14T09:55:59.302Z,8.87
2023-04-14T09:56:59.317Z,8.87
2023-04-14T09:57:59.335Z,9.00
2023-04-14T09:58:59.742Z,8.95
2023-04-14T09:59:59.361Z,8.90
2023-04-14T10:00:59.416Z,8.95
2023-04-14T10:01:59.534Z,8.95
2023-04-14T10:02:59.432Z,8.86
2023-04-14T10:03:59.428Z,8.96
2023-04-14T10:04:59.470Z,8.96
2023-04-14T10:05:59.449Z,8.95
2023-04-14T10:06:59.473Z,8.89
2023-04-14T10:07:59.478Z,8.96
2023-04-14T10:08:59.948Z,8.97
2023-04-14T10:09:59.506Z,8.97
2023-04-14T10:10:59.514Z,9.00
2023-04-14T10:11:59.530Z,8.95
2023-04-14T10:12:59.547Z,8.99
2023-04-14T10:13:59.558Z,8.99
2023-04-14T10:14:59.572Z,8.99
2023-04-14T10:15:59.687Z,8.95
2023-04-14T10:16:59.599Z,9.00
2023-04-14T10:17:59.639Z,8.99
2023-04-14T10:18:59.928Z,8.96
2023-04-14T10:19:59.643Z,8.99
2023-04-14T10:20:59.661Z,9.08
2023-04-14T10:21:59.684Z,9.03
2023-04-14T10:22:59.685Z,9.03
2023-04-14T10:23:59.714Z,9.05
2023-04-14T10:24:59.712Z,9.02
2023-04-14T10:25:59.728Z,9.05
2023-04-14T10:26:59.759Z,9.08
2023-04-14T10:27:59.755Z,8.99
2023-04-14T10:28:59.910Z,8.99
2023-04-14T10:29:59.785Z,9.02
2023-04-14T10:30:59.800Z,9.03
2023-04-14T10:32:00.054Z,9.05
2023-04-14T10:32:59.844Z,9.12
2023-04-14T10:33:59.848Z,9.09
2023-04-14T10:34:59.859Z,9.08
2023-04-14T10:35:59.883Z,9.21
2023-04-14T10:36:59.892Z,9.19
2023-04-14T10:37:59.900Z,9.15
2023-04-14T10:39:00.218Z,9.12
2023-04-14T10:39:59.931Z,9.13
2023-04-14T10:40:59.940Z,9.11
2023-04-14T10:41:59.966Z,9.12
2023-04-14T10:42:59.976Z,9.09
2023-04-14T10:43:59.990Z,9.16
2023-04-14T10:44:59.997Z,9.13
2023-04-14T10:46:00.018Z,9.15
2023-04-14T10:47:00.210Z,9.15
2023-04-14T10:48:00.127Z,9.15
2023-04-14T10:49:00.282Z,9.11
2023-04-14T10:50:00.073Z,9.13
2023-04-14T10:51:00.119Z,9.13
2023-04-14T10:52:00.107Z,9.08
2023-04-14T10:53:00.140Z,9.02
2023-04-14T10:54:00.165Z,9.05
2023-04-14T10:55:00.151Z,9.02
2023-04-14T10:56:00.173Z,9.02
2023-04-14T10:57:00.191Z,9.03
2023-04-14T10:58:00.195Z,9.02
2023-04-14T10:59:00.280Z,8.97
2023-04-14T11:00:00.237Z,8.99
2023-04-14T11:01:00.272Z,8.97
2023-04-14T11:02:00.415Z,8.93
2023-04-14T11:03:00.405Z,8.84
2023-04-14T11:04:00.394Z,8.86
2023-04-14T11:05:00.288Z,8.87
2023-04-14T11:06:00.304Z,8.92
2023-04-14T11:07:00.313Z,8.87
2023-04-14T11:08:02.282Z,8.86
2023-04-14T11:09:00.596Z,8.86
2023-04-14T11:10:00.355Z,8.93
2023-04-14T11:11:00.377Z,8.87
2023-04-14T11:12:00.386Z,8.87
2023-04-14T11:13:00.397Z,8.78
2023-04-14T11:14:00.413Z,8.86
2023-04-14T11:15:00.426Z,8.86
2023-04-14T11:16:00.438Z,8.74
2023-04-14T11:17:04.047Z,8.77
2023-04-14T11:18:00.503Z,8.72
2023-04-14T11:19:00.604Z,8.71
2023-04-14T11:20:00.495Z,8.68
2023-04-14T11:21:00.508Z,8.74
2023-04-14T11:22:00.526Z,8.64
2023-04-14T11:23:00.535Z,8.68
2023-04-14T11:24:00.552Z,8.60
2023-04-14T11:25:00.570Z,8.63
2023-04-14T11:26:00.577Z,8.66
2023-04-14T11:27:00.588Z,8.63
2023-04-14T11:28:00.669Z,8.53
2023-04-14T11:29:00.742Z,8.52
2023-04-14T11:30:00.656Z,8.56
2023-04-14T11:31:00.644Z,8.56
2023-04-14T11:32:00.680Z,8.59
2023-04-14T11:33:00.758Z,8.66
2023-04-14T11:34:00.691Z,8.63
2023-04-14T11:35:00.698Z,8.57
2023-04-14T11:36:00.733Z,8.68
2023-04-14T11:37:00.727Z,8.56
2023-04-14T11:38:00.747Z,8.57
2023-04-14T11:39:00.972Z,8.57
2023-04-14T11:40:00.768Z,8.68
2023-04-14T11:41:00.777Z,8.57
2023-04-14T11:42:00.824Z,8.56
2023-04-14T11:43:00.833Z,8.50
2023-04-14T11:44:00.850Z,8.56
2023-04-14T11:45:00.831Z,8.46
2023-04-14T11:46:00.928Z,8.49
2023-04-14T11:47:00.867Z,8.42
2023-04-14T11:48:01.000Z,8.28
2023-04-14T11:49:01.143Z,8.24
2023-04-14T11:50:00.903Z,8.24
2023-04-14T11:51:00.914Z,8.24
2023-04-14T11:52:00.926Z,8.20
2023-04-14T11:53:00.953Z,8.21
2023-04-14T11:54:00.997Z,8.11
2023-04-14T11:55:00.965Z,8.06
2023-04-14T11:56:01.095Z,8.08
2023-04-14T11:57:00.992Z,8.11
2023-04-14T11:58:01.004Z,8.09
2023-04-14T11:59:01.327Z,8.13
2023-04-14T12:00:01.045Z,8.08
2023-04-14T12:01:01.047Z,8.11
2023-04-14T12:02:01.083Z,8.13
2023-04-14T12:03:01.184Z,8.05
2023-04-14T12:04:01.422Z,8.14
2023-04-14T12:05:01.269Z,8.13
2023-04-14T12:06:01.180Z,8.08
2023-04-14T12:07:01.124Z,8.09
2023-04-14T12:08:01.148Z,8.08
2023-04-14T12:09:01.291Z,8.14
2023-04-14T12:10:01.171Z,8.09
2023-04-14T12:11:01.178Z,8.13
2023-04-14T12:12:01.190Z,8.06
2023-04-14T12:13:01.202Z,8.08
2023-04-14T12:14:01.217Z,8.11
2023-04-14T12:15:01.226Z,8.08
2023-04-14T12:16:01.281Z,8.08
2023-04-14T12:17:01.253Z,8.01
2023-04-14T12:18:01.322Z,8.03
2023-04-14T12:19:01.581Z,8.02
2023-04-14T12:20:01.290Z,8.01
2023-04-14T12:21:01.341Z,7.99
2023-04-14T12:22:01.344Z,7.99
2023-04-14T12:23:01.334Z,8.01
2023-04-14T12:24:01.342Z,8.03
2023-04-14T12:25:01.356Z,8.02
2023-04-14T12:26:01.363Z,8.06
2023-04-14T12:27:01.400Z,8.03
2023-04-14T12:28:01.393Z,7.99
2023-04-14T12:29:01.636Z,8.03
2023-04-14T12:30:01.420Z,8.03
2023-04-14T12:31:01.471Z,8.03
2023-04-14T12:32:01.574Z,8.02
2023-04-14T12:33:01.525Z,8.01
2023-04-14T12:34:01.470Z,8.06
2023-04-14T12:35:01.529Z,8.03
2023-04-14T12:36:01.492Z,8.03
2023-04-14T12:37:01.511Z,8.03
2023-04-14T12:38:01.535Z,8.01
2023-04-14T12:39:01.619Z,8.03
2023-04-14T12:40:01.595Z,8.01
2023-04-14T12:41:01.617Z,7.99
2023-04-14T12:42:01.624Z,7.99
2023-04-14T12:43:01.609Z,8.09
2023-04-14T12:44:01.603Z,8.03
2023-04-14T12:45:01.607Z,8.05
2023-04-14T12:46:01.619Z,8.03
2023-04-14T12:47:01.689Z,8.09
2023-04-14T12:48:01.663Z,8.09
2023-04-14T12:49:01.800Z,8.14
2023-04-14T12:50:01.738Z,8.11
2023-04-14T12:51:01.688Z,8.16
2023-04-14T12:52:01.708Z,8.08
2023-04-14T12:53:01.710Z,8.13
2023-04-14T12:54:01.719Z,8.06
2023-04-14T12:55:01.764Z,8.20
2023-04-14T12:56:01.753Z,8.11
2023-04-14T12:57:03.003Z,8.24
2023-04-14T12:58:01.779Z,8.23
2023-04-14T12:59:01.871Z,8.09
2023-04-14T13:00:01.810Z,8.14
2023-04-14T13:01:01.870Z,8.18
2023-04-14T13:02:01.879Z,8.18
2023-04-14T13:03:02.061Z,8.09
2023-04-14T13:04:01.928Z,8.09
2023-04-14T13:05:01.863Z,8.06
2023-04-14T13:06:01.941Z,8.13
2023-04-14T13:07:01.950Z,8.13
2023-04-14T13:08:01.924Z,8.09
2023-04-14T13:09:02.140Z,8.18
2023-04-14T13:10:01.981Z,8.26
2023-04-14T13:11:01.953Z,8.18
2023-04-14T13:12:01.949Z,8.13
2023-04-14T13:13:01.966Z,8.21
2023-04-14T13:14:01.982Z,8.23
2023-04-14T13:15:02.017Z,8.18
2023-04-14T13:16:13.884Z,8.24
2023-04-14T13:17:02.150Z,8.18
2023-04-14T13:18:02.113Z,8.24
2023-04-14T13:19:02.260Z,8.18
2023-04-14T13:20:02.055Z,8.24